Time;durP1;ratioP1;P1;durP2;ratioP2;P2;SDS_P1;SDS_P2;PMS_P1;PMS_P2;Temp;Humidity;BMP_temperature;BMP_pressure;BME280_temperature;BME280_humidity;BME280_pressure;Samples;Min_cycle;Max_cycle;Signal;HPM_P1;HPM_P2
2021/10/10 00:02:02;;;;;;;125.87;62.73;;;;;;;0.15;70.92;98468.02;1727457;83;27625;-84
2021/10/10 00:04:28;;;;;;;121.90;56.90;;;;;;;0.17;70.93;98461.27;1727442;82;25806;-89
2021/10/10 00:06:55;;;;;;;111.55;54.73;;;;;;;0.14;70.96;98465.00;1727396;82;25287;-86
2021/10/10 00:09:21;;;;;;;107.60;54.30;;;;;;;0.13;70.95;98461.98;1701103;83;26054;-83
2021/10/10 00:11:48;;;;;;;111.22;58.10;;;;;;;0.11;71.04;98465.27;1720424;82;25887;-84
2021/10/10 00:14:15;;;;;;;116.90;56.45;;;;;;;0.12;71.14;98456.82;1727483;82;28482;-83
2021/10/10 00:16:41;;;;;;;114.05;55.90;;;;;;;0.13;71.16;98458.00;1698514;83;25745;-88
2021/10/10 00:19:08;;;;;;;109.12;55.28;;;;;;;0.11;71.10;98455.97;1724323;82;25875;-90
2021/10/10 00:21:34;;;;;;;110.37;54.90;;;;;;;0.06;71.10;98451.50;1727084;82;25884;-84
2021/10/10 00:24:01;;;;;;;101.25;49.95;;;;;;;0.06;71.12;98448.00;1727543;82;25805;-85
2021/10/10 00:26:28;;;;;;;97.20;48.30;;;;;;;0.07;71.24;98450.53;1727630;82;28111;-88
2021/10/10 00:28:54;;;;;;;100.10;51.70;;;;;;;0.10;71.44;98455.61;1727489;82;25829;-87
2021/10/10 00:31:21;;;;;;;101.42;53.17;;;;;;;0.05;71.19;98451.13;1727630;82;25843;-84
2021/10/10 00:33:47;;;;;;;110.30;54.25;;;;;;;0.05;71.18;98451.61;1727544;81;25854;-84
2021/10/10 00:36:14;;;;;;;114.70;54.75;;;;;;;0.00;71.13;98448.02;1727649;82;26563;-86
2021/10/10 00:38:42;;;;;;;107.72;52.08;;;;;;;-0.03;71.24;98444.27;1725722;81;28199;-91
2021/10/10 00:41:08;;;;;;;106.92;50.88;;;;;;;-0.04;71.30;98441.24;1729806;81;25725;-83
2021/10/10 00:43:35;;;;;;;103.55;51.30;;;;;;;-0.05;71.28;98440.88;1727532;82;25897;-90
2021/10/10 00:46:01;;;;;;;109.37;54.83;;;;;;;-0.07;71.28;98437.49;1727238;81;25737;-90
2021/10/10 00:48:29;;;;;;;107.30;53.92;;;;;;;-0.11;71.31;98441.34;1720392;82;25840;-83
2021/10/10 00:50:56;;;;;;;104.78;51.83;;;;;;;-0.10;71.39;98440.38;1723664;82;27381;-83
2021/10/10 00:53:24;;;;;;;102.70;51.63;;;;;;;-0.10;71.49;98439.05;1727569;82;26327;-82
2021/10/10 00:55:54;;;;;;;92.53;47.55;;;;;;;-0.09;71.49;98440.74;1727731;82;25740;-82
2021/10/10 00:58:26;;;;;;;92.60;49.10;;;;;;;-0.16;71.30;98435.56;1727628;82;25716;-84
2021/10/10 01:00:55;;;;;;;97.55;49.95;;;;;;;-0.21;71.33;98442.54;1727814;82;25769;-86
2021/10/10 01:03:23;;;;;;;94.77;49.30;;;;;;;-0.21;71.37;98433.73;1727891;82;28266;-84
2021/10/10 01:05:51;;;;;;;99.77;48.92;;;;;;;-0.25;71.34;98428.33;1715592;82;25900;-89
2021/10/10 01:08:18;;;;;;;98.05;50.08;;;;;;;-0.29;71.54;98434.82;1727622;82;25751;-91
2021/10/10 01:10:47;;;;;;;97.82;49.93;;;;;;;-0.28;71.63;98425.91;1727531;81;26051;-89
2021/10/10 01:13:16;;;;;;;99.72;48.00;;;;;;;-0.28;71.65;98423.25;1727457;82;25887;-85
2021/10/10 01:15:43;;;;;;;106.17;50.90;;;;;;;-0.26;71.69;98431.94;1727871;82;28310;-88
2021/10/10 01:18:10;;;;;;;105.27;51.02;;;;;;;-0.26;71.67;98427.48;1727164;81;25295;-83
2021/10/10 01:20:45;;;;;;;99.15;49.88;;;;;;;-0.25;71.74;98432.30;1727436;82;25790;-89
2021/10/10 01:23:12;;;;;;;92.00;48.33;;;;;;;-0.22;71.76;98425.41;1727571;82;25722;-83
2021/10/10 01:25:39;;;;;;;99.40;49.93;;;;;;;-0.20;71.83;98420.83;1727714;82;25771;-86
2021/10/10 01:28:05;;;;;;;88.20;46.23;;;;;;;-0.27;71.63;98419.63;1727581;82;28471;-90
2021/10/10 01:30:33;;;;;;;97.57;49.93;;;;;;;-0.31;71.62;98411.06;1727503;82;25936;-86
2021/10/10 01:33:02;;;;;;;94.72;45.98;;;;;;;-0.31;71.65;98408.88;1727566;82;25728;-88
2021/10/10 01:35:28;;;;;;;91.72;48.28;;;;;;;-0.27;71.78;98411.67;1727624;82;26481;-83
2021/10/10 01:37:55;;;;;;;90.38;45.33;;;;;;;-0.27;71.70;98405.04;1727617;82;25847;-91
2021/10/10 01:40:22;;;;;;;96.28;47.73;;;;;;;-0.29;71.74;98401.66;1707985;82;27434;-84
2021/10/10 01:42:48;;;;;;;80.85;43.02;;;;;;;-0.30;71.75;98399.97;1727024;82;25876;-83
2021/10/10 01:45:22;;;;;;;79.25;41.88;;;;;;;-0.34;71.76;98399.83;1708079;82;25784;-83
2021/10/10 01:47:49;;;;;;;84.65;43.25;;;;;;;-0.40;71.93;98404.67;1716407;82;26473;-86
2021/10/10 01:50:15;;;;;;;83.55;42.53;;;;;;;-0.46;71.97;98407.78;1727580;82;25724;-86
2021/10/10 01:52:46;;;;;;;87.08;42.48;;;;;;;-0.44;72.18;98409.83;1714021;81;27204;-84
2021/10/10 01:55:13;;;;;;;80.90;43.15;;;;;;;-0.39;72.22;98411.66;1727429;81;26402;-85
2021/10/10 01:57:40;;;;;;;94.90;45.83;;;;;;;-0.34;72.21;98408.63;1727572;82;25806;-84
2021/10/10 02:00:10;;;;;;;94.30;45.95;;;;;;;-0.31;72.16;98401.77;1727682;81;26330;-85
2021/10/10 02:02:36;;;;;;;89.05;42.85;;;;;;;-0.30;72.19;98398.64;1727609;82;25780;-86
2021/10/10 02:05:04;;;;;;;88.05;40.90;;;;;;;-0.27;72.16;98402.39;1727739;82;27363;-87
2021/10/10 02:07:31;;;;;;;74.22;39.88;;;;;;;-0.29;72.06;98401.17;1721448;82;25832;-85
2021/10/10 02:09:58;;;;;;;78.00;40.48;;;;;;;-0.28;72.09;98404.67;1713494;82;25712;-88
2021/10/10 02:12:25;;;;;;;76.35;39.03;;;;;;;-0.28;72.09;98404.67;1736463;81;25795;-85
2021/10/10 02:14:51;;;;;;;80.38;39.60;;;;;;;-0.29;72.05;98396.35;1727598;81;25839;-84
2021/10/10 02:17:19;;;;;;;79.67;39.63;;;;;;;-0.32;71.99;98394.77;1737814;81;28091;-86
2021/10/10 02:19:46;;;;;;;76.15;38.75;;;;;;;-0.34;71.96;98393.20;1737517;82;26434;-91
2021/10/10 02:22:13;;;;;;;85.38;40.38;;;;;;;-0.33;71.99;98398.87;1744812;81;25779;-84
2021/10/10 02:24:39;;;;;;;76.02;37.98;;;;;;;-0.33;71.99;98397.55;1737873;81;25806;-84
2021/10/10 02:27:06;;;;;;;68.22;36.28;;;;;;;-0.30;72.08;98404.79;1737914;82;26330;-87
2021/10/10 02:29:32;;;;;;;72.95;36.25;;;;;;;-0.30;72.03;98394.17;1738042;81;27419;-83
2021/10/10 02:31:59;;;;;;;77.80;37.73;;;;;;;-0.32;71.97;98402.73;1737939;81;25760;-85
2021/10/10 02:34:26;;;;;;;79.80;40.08;;;;;;;-0.33;72.06;98401.52;1738019;81;25812;-87
2021/10/10 02:36:53;;;;;;;78.40;36.53;;;;;;;-0.32;71.99;98404.06;1738013;81;25766;-88
2021/10/10 02:39:19;;;;;;;78.97;38.23;;;;;;;-0.34;72.02;98402.48;1728851;81;26620;-85
2021/10/10 02:41:46;;;;;;;72.50;38.58;;;;;;;-0.34;72.05;98407.79;1737987;81;27918;-86
2021/10/10 02:44:13;;;;;;;75.60;37.38;;;;;;;-0.36;72.08;98405.25;1737885;81;25848;-84
2021/10/10 02:46:39;;;;;;;79.27;39.15;;;;;;;-0.37;71.97;98407.09;1737252;81;25315;-86
2021/10/10 02:49:06;;;;;;;88.97;42.95;;;;;;;-0.38;71.87;98406.72;1737987;81;26416;-89
2021/10/10 02:51:33;;;;;;;87.08;41.35;;;;;;;-0.38;71.92;98398.77;1737722;81;25716;-85
2021/10/10 02:53:59;;;;;;;94.13;42.43;;;;;;;-0.40;71.86;98400.69;1737929;81;28201;-88
2021/10/10 02:56:26;;;;;;;86.82;41.63;;;;;;;-0.43;71.90;98396.94;1737771;81;25844;-89
2021/10/10 02:58:53;;;;;;;78.67;40.00;;;;;;;-0.44;71.83;98397.90;1738224;81;25717;-84
2021/10/10 03:01:19;;;;;;;88.05;41.23;;;;;;;-0.46;71.85;98397.16;1738100;81;26399;-84
2021/10/10 03:03:46;;;;;;;87.05;41.42;;;;;;;-0.45;71.75;98401.99;1737983;81;25336;-85
2021/10/10 03:06:12;;;;;;;78.87;39.78;;;;;;;-0.50;71.74;98397.06;1737735;81;27581;-87
2021/10/10 03:08:39;;;;;;;84.90;38.33;;;;;;;-0.51;71.77;98399.83;1737433;81;26575;-90
2021/10/10 03:11:06;;;;;;;75.08;37.78;;;;;;;-0.51;71.81;98396.70;1735552;81;25724;-86
2021/10/10 03:13:33;;;;;;;68.95;35.98;;;;;;;-0.53;71.73;98393.31;1727712;82;25753;-84
2021/10/10 03:15:59;;;;;;;74.35;35.50;;;;;;;-0.53;71.79;98390.66;1727550;81;26490;-84
2021/10/10 03:18:27;;;;;;;71.35;35.25;;;;;;;-0.53;71.77;98389.81;1727296;82;27447;-85
2021/10/10 03:20:54;;;;;;;81.05;35.88;;;;;;;-0.56;71.74;98390.89;1727443;81;25247;-85
2021/10/10 03:23:21;;;;;;;72.87;34.85;;;;;;;-0.57;71.78;98381.72;1727543;82;25795;-85
2021/10/10 03:25:48;;;;;;;70.65;34.70;;;;;;;-0.60;71.77;98377.48;1727522;82;26488;-85
2021/10/10 03:28:15;;;;;;;72.85;35.85;;;;;;;-0.63;71.71;98379.08;1727657;82;25843;-85
2021/10/10 03:30:42;;;;;;;68.12;33.67;;;;;;;-0.66;71.76;98373.16;1727450;82;27519;-85
2021/10/10 03:33:08;;;;;;;72.10;34.80;;;;;;;-0.66;71.89;98375.33;1727446;82;25867;-84
2021/10/10 03:35:35;;;;;;;70.57;35.78;;;;;;;-0.66;71.83;98369.17;1727556;82;26080;-85
2021/10/10 03:38:02;;;;;;;74.17;35.92;;;;;;;-0.69;71.74;98380.86;1727428;82;26419;-86
2021/10/10 03:40:29;;;;;;;68.78;33.53;;;;;;;-0.72;71.78;98374.45;1727496;82;25776;-86
2021/10/10 03:42:55;;;;;;;67.05;34.88;;;;;;;-0.75;71.75;98375.56;1727582;82;28102;-87
2021/10/10 03:45:22;;;;;;;69.95;34.18;;;;;;;-0.77;71.76;98374.83;1721195;82;25693;-87
2021/10/10 03:47:49;;;;;;;69.53;35.65;;;;;;;-0.78;71.81;98375.78;1718518;82;25760;-87
2021/10/10 03:50:15;;;;;;;73.57;35.78;;;;;;;-0.79;71.78;98378.55;1706926;82;26517;-85
2021/10/10 03:52:43;;;;;;;85.65;38.83;;;;;;;-0.80;71.78;98375.53;1726592;82;25398;-88
2021/10/10 03:55:32;;;;;;;73.78;35.28;;;;;;;-0.80;71.78;98373.73;1725095;81;28042;-89
2021/10/10 03:57:58;;;;;;;82.65;38.45;;;;;;;-0.79;71.79;98382.53;1727024;82;26496;-85
2021/10/10 04:00:27;;;;;;;79.80;37.17;;;;;;;-0.77;71.81;98376.63;1727161;81;25813;-86
2021/10/10 04:02:53;;;;;;;67.20;33.08;;;;;;;-0.78;71.78;98367.83;1727477;82;25705;-86
2021/10/10 04:05:36;;;;;;;66.40;31.62;;;;;;;-0.77;71.81;98362.05;1708286;81;25704;-86
2021/10/10 04:07:51;;;;;;;51.95;25.77;;;;;;;-0.79;71.78;98363.97;1713486;82;27407;-85
2021/10/10 04:10:18;;;;;;;61.95;32.23;;;;;;;-0.79;71.91;98373.25;1727066;82;25818;-85
2021/10/10 04:12:45;;;;;;;60.85;30.57;;;;;;;-0.79;71.78;98371.44;1725857;81;26385;-86
2021/10/10 04:15:12;;;;;;;67.53;30.88;;;;;;;-0.81;71.74;98376.49;1725768;83;25728;-87
2021/10/10 04:17:41;;;;;;;62.58;32.08;;;;;;;-0.83;71.82;98363.83;1725558;83;25757;-87
2021/10/10 04:20:10;;;;;;;71.77;32.63;;;;;;;-0.83;71.78;98365.16;1710023;83;27320;-84
2021/10/10 04:22:38;;;;;;;75.35;36.38;;;;;;;-0.89;71.72;98361.18;1725452;83;25693;-85
2021/10/10 04:25:07;;;;;;;87.02;35.90;;;;;;;-0.91;71.84;98356.95;1725712;83;25618;-84
2021/10/10 04:27:35;;;;;;;84.87;36.77;;;;;;;-0.92;71.95;98349.48;1725730;83;26496;-87
2021/10/10 04:30:06;;;;;;;85.15;36.63;;;;;;;-0.89;71.94;98359.01;1713871;83;25327;-84
2021/10/10 04:32:33;;;;;;;72.85;33.55;;;;;;;-0.93;71.89;98358.87;1709747;83;28375;-85
2021/10/10 04:35:00;;;;;;;68.57;33.15;;;;;;;-0.94;72.01;98358.50;1725409;83;25689;-85
2021/10/10 04:37:27;;;;;;;74.47;33.65;;;;;;;-0.97;72.00;98356.11;1725314;83;26317;-85
2021/10/10 04:39:54;;;;;;;72.92;32.83;;;;;;;-0.97;71.92;98356.95;1716508;83;26321;-85
2021/10/10 04:42:20;;;;;;;68.17;32.17;;;;;;;-0.99;71.83;98360.67;1725800;83;25776;-86
2021/10/10 04:44:47;;;;;;;67.80;31.62;;;;;;;-1.01;71.84;98363.91;1725821;83;28159;-85
2021/10/10 04:47:13;;;;;;;66.15;30.90;;;;;;;-1.00;71.94;98362.95;1725483;83;26476;-85
2021/10/10 04:49:40;;;;;;;61.65;31.10;;;;;;;-0.96;71.85;98365.72;1725455;83;25824;-86
2021/10/10 04:52:07;;;;;;;64.00;31.42;;;;;;;-1.01;71.82;98365.23;1725535;83;25879;-87
2021/10/10 04:54:34;;;;;;;70.65;32.20;;;;;;;-1.02;71.89;98358.25;1725353;83;25692;-84
2021/10/10 04:57:01;;;;;;;58.05;29.98;;;;;;;-1.03;71.86;98361.86;1725582;83;28076;-86
2021/10/10 04:59:27;;;;;;;60.73;30.92;;;;;;;-1.04;71.90;98368.11;1725539;83;25691;-84
2021/10/10 05:01:54;;;;;;;64.90;31.65;;;;;;;-1.04;72.02;98358.36;1725114;83;25332;-85
2021/10/10 05:04:21;;;;;;;58.30;30.85;;;;;;;-1.04;72.12;98368.11;1705117;83;25846;-87
2021/10/10 05:06:47;;;;;;;66.35;32.48;;;;;;;-1.02;72.12;98359.58;1725322;83;25778;-85
2021/10/10 05:09:14;;;;;;;63.95;31.12;;;;;;;-1.02;72.09;98356.92;1725270;83;27545;-85
2021/10/10 05:11:40;;;;;;;59.75;31.90;;;;;;;-1.00;72.09;98353.68;1725647;81;25776;-88
2021/10/10 05:14:07;;;;;;;60.70;29.05;;;;;;;-1.01;72.10;98355.97;1738796;81;25775;-85
2021/10/10 05:16:34;;;;;;;67.72;33.55;;;;;;;-1.02;72.02;98358.25;1737327;81;25786;-86
2021/10/10 05:19:00;;;;;;;67.67;31.70;;;;;;;-1.04;72.07;98360.16;1730831;81;25731;-85
2021/10/10 05:21:27;;;;;;;59.93;30.55;;;;;;;-1.02;72.18;98352.95;1738403;81;28339;-87
2021/10/10 05:23:53;;;;;;;65.37;33.00;;;;;;;-1.03;72.15;98357.41;1738628;81;26421;-87
2021/10/10 05:26:20;;;;;;;70.15;31.48;;;;;;;-1.03;72.16;98350.78;1738630;81;25775;-86
2021/10/10 05:28:46;;;;;;;67.70;31.87;;;;;;;-1.00;72.23;98353.68;1731408;81;26182;-86
2021/10/10 05:31:13;;;;;;;79.90;35.68;;;;;;;-1.01;72.31;98357.29;1734851;81;25677;-85
2021/10/10 05:33:39;;;;;;;59.35;30.08;;;;;;;-0.98;72.34;98361.89;1738736;81;27700;-84
2021/10/10 05:36:06;;;;;;;57.78;29.00;;;;;;;-0.95;72.41;98362.95;1738678;81;25756;-86
2021/10/10 05:38:34;;;;;;;59.25;29.25;;;;;;;-0.91;72.44;98360.92;1738726;81;25311;-86
2021/10/10 05:41:02;;;;;;;61.73;29.18;;;;;;;-0.88;72.54;98371.30;1738794;81;25855;-87
2021/10/10 05:43:28;;;;;;;67.42;32.78;;;;;;;-0.85;72.60;98371.08;1738959;81;25294;-87
2021/10/10 05:45:55;;;;;;;64.95;32.53;;;;;;;-0.81;72.69;98365.41;1738002;81;27355;-87
2021/10/10 05:48:21;;;;;;;61.18;31.82;;;;;;;-0.75;72.78;98364.95;1718798;81;25820;-87
2021/10/10 05:50:48;;;;;;;60.35;31.55;;;;;;;-0.71;72.85;98366.86;1738732;81;25763;-86
2021/10/10 05:53:15;;;;;;;56.45;29.63;;;;;;;-0.66;72.92;98363.39;1738806;81;25668;-87
2021/10/10 05:55:42;;;;;;;54.03;27.60;;;;;;;-0.59;72.94;98361.95;1738848;81;26335;-87
2021/10/10 05:58:15;;;;;;;55.75;28.38;;;;;;;-0.54;73.11;98357.14;1738858;81;27462;-87
2021/10/10 06:00:37;;;;;;;59.23;29.40;;;;;;;-0.51;73.11;98347.63;1754158;80;26453;-87
2021/10/10 06:03:07;;;;;;;70.55;35.00;;;;;;;-0.48;73.19;98351.34;1777907;78;25675;-87
2021/10/10 06:05:35;;;;;;;75.60;36.68;;;;;;;-0.43;73.16;98350.52;1781098;78;25673;-87
2021/10/10 06:08:01;;;;;;;58.50;30.02;;;;;;;-0.38;73.21;98351.02;1787111;80;25760;-87
2021/10/10 06:10:28;;;;;;;63.85;30.48;;;;;;;-0.31;73.19;98353.17;1787238;78;27586;-87
2021/10/10 06:12:54;;;;;;;63.23;33.67;;;;;;;-0.26;73.13;98350.53;1781875;80;25797;-88
2021/10/10 06:15:21;;;;;;;74.90;34.85;;;;;;;-0.19;73.12;98349.55;1777888;79;26291;-87
2021/10/10 06:17:47;;;;;;;62.40;30.20;;;;;;;-0.14;73.13;98354.87;1766025;80;26464;-87
2021/10/10 06:20:14;;;;;;;55.15;27.90;;;;;;;-0.09;73.10;98348.70;1755548;79;25739;-87
2021/10/10 06:22:41;;;;;;;52.85;27.90;;;;;;;-0.04;73.15;98354.98;1777655;80;28032;-87
2021/10/10 06:25:08;;;;;;;55.52;28.77;;;;;;;0.00;73.21;98351.94;1777312;79;25934;-88
2021/10/10 06:27:35;;;;;;;60.75;28.02;;;;;;;0.07;73.27;98356.29;1777951;80;26045;-87
2021/10/10 06:30:01;;;;;;;61.48;30.85;;;;;;;0.13;73.34;98343.84;1777947;79;26326;-88
2021/10/10 06:32:28;;;;;;;72.60;35.05;;;;;;;0.19;73.39;98338.05;1776737;80;25288;-88
2021/10/10 06:34:54;;;;;;;72.10;33.25;;;;;;;0.23;73.52;98335.52;1777817;80;27507;-87
2021/10/10 06:37:21;;;;;;;63.08;30.68;;;;;;;0.26;73.50;98340.55;1761336;79;26497;-89
2021/10/10 06:39:48;;;;;;;86.35;37.73;;;;;;;0.28;73.48;98337.30;1777987;79;25799;-87
2021/10/10 06:42:16;;;;;;;81.57;38.35;;;;;;;0.34;73.58;98334.16;1777769;79;26429;-88
2021/10/10 06:44:43;;;;;;;75.30;36.05;;;;;;;0.44;73.71;98329.41;1777886;79;25378;-88
2021/10/10 06:47:09;;;;;;;69.85;35.05;;;;;;;0.55;73.72;98334.69;1777090;79;27346;-88
2021/10/10 06:49:36;;;;;;;70.52;31.60;;;;;;;0.65;73.78;98326.30;1777634;79;25895;-89
2021/10/10 06:52:03;;;;;;;60.48;31.20;;;;;;;0.76;73.77;98325.41;1777637;79;25510;-91
2021/10/10 06:54:30;;;;;;;65.95;32.05;;;;;;;0.86;73.72;98326.33;1777356;79;25822;-88
2021/10/10 06:56:56;;;;;;;71.72;32.80;;;;;;;0.97;73.68;98320.95;1777803;79;25742;-89
2021/10/10 06:59:23;;;;;;;71.25;34.08;;;;;;;1.07;73.74;98325.88;1777809;79;27582;-88
2021/10/10 07:01:49;;;;;;;59.83;29.92;;;;;;;1.17;73.73;98320.61;1777366;79;25925;-88
2021/10/10 07:04:16;;;;;;;51.37;28.67;;;;;;;1.32;73.80;98319.31;1777881;79;25261;-88
2021/10/10 07:06:43;;;;;;;58.08;27.17;;;;;;;1.52;73.80;98309.12;1777740;79;25694;-88
2021/10/10 07:09:11;;;;;;;54.48;28.62;;;;;;;1.66;73.55;98309.25;1777601;80;25827;-87
2021/10/10 07:11:39;;;;;;;57.43;26.82;;;;;;;1.80;73.60;98312.89;1777628;80;28378;-87
2021/10/10 07:14:06;;;;;;;51.75;27.27;;;;;;;1.96;73.35;98302.55;1777228;79;25864;-87
2021/10/10 07:16:34;;;;;;;47.80;26.23;;;;;;;2.16;73.25;98300.80;1777617;79;25783;-86
2021/10/10 07:19:03;;;;;;;43.55;23.83;;;;;;;2.38;73.27;98306.38;1777745;79;25738;-87
2021/10/10 07:22:15;;;;;;;40.75;23.15;;;;;;;2.63;72.84;98301.00;1777827;79;25710;-88
2021/10/10 07:26:37;;;;;;;45.10;24.50;;;;;;;3.11;72.01;98300.47;1772845;79;25777;-87
2021/10/10 07:29:05;;;;;;;49.40;26.97;;;;;;;3.37;71.88;98303.86;1777744;79;25733;-88
2021/10/10 07:31:32;;;;;;;52.83;26.37;;;;;;;3.63;71.93;98299.55;1769222;80;25813;-89
2021/10/10 07:33:59;;;;;;;51.50;26.25;;;;;;;3.91;71.66;98303.94;1774756;79;25750;-88
2021/10/10 07:36:26;;;;;;;56.53;27.30;;;;;;;4.17;71.40;98297.91;1777532;79;27518;-87
2021/10/10 07:38:52;;;;;;;53.42;27.73;;;;;;;4.41;71.33;98294.16;1777518;79;25823;-88
2021/10/10 07:41:19;;;;;;;54.93;29.02;;;;;;;4.67;71.10;98296.94;1777941;79;25638;-88
2021/10/10 07:43:46;;;;;;;52.45;27.98;;;;;;;4.94;70.71;98303.55;1777842;80;25739;-87
2021/10/10 07:46:21;;;;;;;52.45;27.32;;;;;;;5.23;70.80;98289.88;1772993;79;25746;-89
2021/10/10 07:48:43;;;;;;;47.53;23.80;;;;;;;5.60;70.51;98287.44;1766146;80;27592;-90
2021/10/10 07:51:10;;;;;;;42.93;22.77;;;;;;;5.87;69.15;98287.75;1786010;79;25835;-88
2021/10/10 07:53:37;;;;;;;47.25;24.15;;;;;;;6.06;68.77;98280.32;1791057;79;25846;-88
2021/10/10 07:56:03;;;;;;;38.33;20.97;;;;;;;6.33;68.69;98281.92;1777321;80;26697;-87
2021/10/10 07:58:30;;;;;;;41.77;22.15;;;;;;;6.62;67.91;98283.34;1777460;79;25712;-88
2021/10/10 08:00:57;;;;;;;39.53;21.17;;;;;;;6.80;67.39;98284.86;1777449;80;27421;-88
2021/10/10 08:03:23;;;;;;;40.25;20.20;;;;;;;6.90;67.09;98274.46;1777527;80;25820;-87
2021/10/10 08:05:50;;;;;;;35.78;19.20;;;;;;;7.02;66.62;98279.33;1777398;79;26301;-87
2021/10/10 08:08:17;;;;;;;40.33;24.23;;;;;;;7.18;66.19;98283.88;1777732;79;26654;-89
2021/10/10 08:10:43;;;;;;;41.53;23.38;;;;;;;7.28;65.97;98288.56;1777797;79;26150;-88
2021/10/10 08:13:10;;;;;;;44.88;26.77;;;;;;;7.29;65.42;98283.53;1777505;80;28332;-86
2021/10/10 08:15:36;;;;;;;41.70;25.45;;;;;;;7.18;65.28;98271.28;1777496;80;26014;-87
2021/10/10 08:18:03;;;;;;;53.05;25.48;;;;;;;7.14;65.66;98263.72;1777750;79;25773;-87
2021/10/10 08:20:30;;;;;;;38.13;23.95;;;;;;;7.27;65.83;98261.87;1777719;79;26651;-87
2021/10/10 08:22:58;;;;;;;39.48;22.25;;;;;;;7.46;64.83;98255.65;1777514;79;25741;-88
2021/10/10 08:25:25;;;;;;;40.25;22.73;;;;;;;7.67;64.75;98260.45;1777821;79;28185;-88
2021/10/10 08:27:52;;;;;;;43.75;23.67;;;;;;;7.99;64.56;98262.69;1777664;80;26417;-86
2021/10/10 08:30:19;;;;;;;43.73;23.42;;;;;;;8.24;63.89;98258.88;1777704;79;25710;-86
2021/10/10 08:32:46;;;;;;;43.60;23.60;;;;;;;8.59;63.85;98256.19;1777404;79;25798;-86
2021/10/10 08:35:14;;;;;;;41.70;22.87;;;;;;;8.93;63.02;98241.83;1777771;80;25738;-88
2021/10/10 08:37:46;;;;;;;37.58;21.82;;;;;;;9.16;62.90;98240.96;1777650;79;28084;-87
2021/10/10 08:40:13;;;;;;;46.08;22.77;;;;;;;9.45;62.58;98235.61;1776244;79;25942;-86
2021/10/10 08:42:46;;;;;;;40.88;22.15;;;;;;;9.75;61.87;98235.97;1777020;80;25749;-88
2021/10/10 08:45:18;;;;;;;33.38;20.95;;;;;;;10.11;61.68;98236.55;1777743;79;25861;-92
2021/10/10 08:47:45;;;;;;;41.00;20.77;;;;;;;10.49;61.09;98227.80;1777073;79;25710;-87
2021/10/10 08:50:22;;;;;;;39.08;21.00;;;;;;;10.72;60.51;98221.71;1777403;79;27364;-91
2021/10/10 08:52:52;;;;;;;37.60;20.62;;;;;;;10.82;59.80;98221.39;1764591;80;25718;-88
2021/10/10 08:55:20;;;;;;;38.83;21.40;;;;;;;10.88;59.19;98223.30;1774548;80;25745;-89
2021/10/10 08:57:47;;;;;;;37.55;21.25;;;;;;;10.89;58.94;98219.57;1759258;79;25741;-90
2021/10/10 09:00:32;;;;;;;36.77;20.95;;;;;;;10.86;58.82;98211.05;1760383;79;25785;-90
2021/10/10 09:03:00;;;;;;;42.70;21.82;;;;;;;10.85;58.53;98212.06;1768606;80;27370;-87
2021/10/10 09:05:27;;;;;;;32.25;20.10;;;;;;;10.77;58.55;98211.15;1777108;80;25753;-90
2021/10/10 09:07:55;;;;;;;37.13;20.35;;;;;;;10.72;58.49;98216.83;1777752;80;25765;-88
2021/10/10 09:10:28;;;;;;;38.88;21.15;;;;;;;10.70;58.32;98213.48;1777754;79;25912;-87
2021/10/10 09:13:16;;;;;;;37.13;21.50;;;;;;;10.74;58.18;98208.02;1778844;79;25279;-87
2021/10/10 09:15:49;;;;;;;35.15;20.00;;;;;;;10.89;58.15;98200.66;1786863;80;27557;-86
2021/10/10 09:18:16;;;;;;;35.58;19.17;;;;;;;11.00;57.87;98208.75;1765509;78;25828;-87
2021/10/10 09:20:45;;;;;;;38.88;21.42;;;;;;;11.11;57.62;98204.17;1787208;78;25192;-87
2021/10/10 09:23:23;;;;;;;38.70;23.12;;;;;;;11.27;57.57;98199.00;1787346;78;26485;-86
2021/10/10 09:26:03;;;;;;;41.85;23.60;;;;;;;11.46;57.41;98196.98;1787368;78;25669;-86
2021/10/10 09:28:36;;;;;;;38.67;22.52;;;;;;;11.63;57.33;98196.97;1787405;80;27412;-86
2021/10/10 09:31:04;;;;;;;;;;;;;;;11.87;56.78;98194.33;1789871;78;25853;-87
2021/10/10 09:33:52;;;;;;;37.85;21.50;;;;;;;12.08;55.76;98190.66;1786607;80;25760;-85
2021/10/10 09:36:26;;;;;;;42.48;23.15;;;;;;;12.16;55.80;98193.22;1787378;78;25765;-90
2021/10/10 09:39:07;;;;;;;38.13;21.93;;;;;;;12.08;55.57;98185.25;1787400;78;25805;-88
2021/10/10 09:44:09;;;;;;;37.28;22.62;;;;;;;12.34;55.29;98185.36;1787135;80;25746;-89
2021/10/10 09:46:33;;;;;;;35.15;21.30;;;;;;;12.51;55.17;98188.02;1764956;78;25758;-86
2021/10/10 09:49:00;;;;;;;37.20;21.90;;;;;;;12.74;54.75;98187.64;1759470;80;25776;-85
2021/10/10 09:51:35;;;;;;;36.98;22.50;;;;;;;12.82;54.88;98177.13;1784648;78;26184;-85
2021/10/10 09:54:06;;;;;;;37.05;22.22;;;;;;;12.95;54.40;98169.00;1787296;78;27377;-85
2021/10/10 09:56:34;;;;;;;41.33;23.02;;;;;;;13.03;53.92;98171.53;1787058;80;25932;-85
2021/10/10 09:59:01;;;;;;;33.05;20.72;;;;;;;13.20;53.68;98163.30;1787239;78;25737;-85
2021/10/10 10:01:30;;;;;;;31.85;20.85;;;;;;;13.37;53.00;98163.72;1787171;78;25693;-91
2021/10/10 10:04:04;;;;;;;36.50;20.08;;;;;;;13.38;52.90;98162.67;1787199;78;25730;-89
2021/10/10 10:06:35;;;;;;;36.38;19.82;;;;;;;13.50;52.90;98165.58;1787351;78;28242;-86
2021/10/10 10:09:09;;;;;;;39.18;22.50;;;;;;;13.65;52.29;98164.79;1786713;78;26344;-92
2021/10/10 10:11:41;;;;;;;40.25;20.35;;;;;;;13.79;52.58;98161.00;1787137;80;25718;-93
2021/10/10 10:14:11;;;;;;;38.67;21.23;;;;;;;13.97;51.99;98157.09;1782728;80;25696;-85
2021/10/10 10:16:41;;;;;;;32.35;19.65;;;;;;;14.03;51.43;98167.59;1777458;80;25706;-85
2021/10/10 10:19:17;;;;;;;34.43;19.42;;;;;;;13.96;51.24;98159.49;1777749;79;27208;-87
2021/10/10 10:21:47;;;;;;;33.55;18.25;;;;;;;13.99;51.20;98165.86;1777792;79;25695;-86
2021/10/10 10:24:15;;;;;;;35.40;18.75;;;;;;;14.14;50.84;98156.59;1777925;79;25315;-85
2021/10/10 10:26:42;;;;;;;31.62;18.55;;;;;;;14.29;50.68;98153.08;1777901;79;25844;-86
2021/10/10 10:29:25;;;;;;;32.53;19.10;;;;;;;14.44;50.06;98148.23;1777552;80;25646;-86
2021/10/10 10:31:56;;;;;;;31.45;19.07;;;;;;;14.42;49.90;98147.61;1760241;79;27479;-86
2021/10/10 10:34:36;;;;;;;31.68;19.50;;;;;;;14.24;49.68;98146.95;1776913;79;25855;-86
2021/10/10 10:37:07;;;;;;;29.05;18.95;;;;;;;14.15;49.69;98152.83;1776690;79;25761;-86
2021/10/10 10:39:44;;;;;;;32.88;19.02;;;;;;;14.05;49.10;98146.50;1777769;79;25710;-86
2021/10/10 10:42:28;;;;;;;30.35;19.25;;;;;;;13.86;49.51;98150.98;1777226;79;25699;-85
2021/10/10 10:44:55;;;;;;;27.90;18.48;;;;;;;13.77;49.25;98138.67;1777362;79;27462;-85
2021/10/10 10:47:38;;;;;;;32.42;20.10;;;;;;;13.81;49.88;98138.56;1777683;79;25699;-85
2021/10/10 10:50:26;;;;;;;31.60;18.70;;;;;;;13.87;49.91;98138.24;1681462;82;25914;-86
2021/10/10 10:53:14;;;;;;;31.95;19.60;;;;;;;13.88;49.04;98131.77;1767996;80;25875;-87
2021/10/10 10:55:47;;;;;;;30.90;18.82;;;;;;;13.82;49.41;98135.33;1729457;81;25687;-87
2021/10/10 10:58:16;;;;;;;28.98;18.92;;;;;;;13.77;49.42;98139.19;1769627;79;27380;-86
2021/10/10 11:00:49;;;;;;;36.20;17.75;;;;;;;13.62;49.22;98135.40;1756908;79;25770;-86
2021/10/10 11:03:26;;;;;;;28.70;17.52;;;;;;;13.53;49.36;98139.36;1777749;79;25734;-87
2021/10/10 11:06:09;;;;;;;27.82;17.20;;;;;;;13.41;49.00;98143.25;1758261;80;25684;-86
2021/10/10 11:08:44;;;;;;;31.35;18.07;;;;;;;13.31;48.95;98140.98;1777841;79;25846;-87
2021/10/10 11:11:23;;;;;;;32.45;18.02;;;;;;;13.19;48.77;98137.23;1776469;80;28290;-85
2021/10/10 11:14:01;;;;;;;31.05;17.65;;;;;;;13.17;49.09;98136.61;1779079;78;25737;-86
2021/10/10 11:16:34;;;;;;;29.75;15.90;;;;;;;13.22;49.51;98139.53;1787042;78;25758;-87
2021/10/10 11:19:11;;;;;;;33.00;18.25;;;;;;;13.28;49.09;98138.67;1786800;78;25794;-86
2021/10/10 11:21:45;;;;;;;36.83;19.32;;;;;;;13.27;49.10;98138.39;1787318;78;25717;-87
2021/10/10 11:24:24;;;;;;;33.10;18.07;;;;;;;13.35;49.43;98135.97;1787378;78;28607;-86
2021/10/10 11:26:53;;;;;;;30.62;17.98;;;;;;;13.39;49.30;98143.17;1787122;80;25683;-85
2021/10/10 11:29:24;;;;;;;28.87;17.12;;;;;;;13.47;48.54;98144.30;1786893;78;25686;-85
2021/10/10 11:31:51;;;;;;;33.67;15.20;;;;;;;13.46;48.80;98137.20;1787197;78;25698;-86